sensor_id;sensor_type;location;lat;lon;timestamp;P1;durP1;ratioP1;P2;durP2;ratioP2
20495;SDS011;10406;54.132;17.968;2022-10-31T00:03:16;56.87;;;25.23;;
20495;SDS011;10406;54.132;17.968;2022-10-31T00:08:41;117.87;;;30.03;;
20495;SDS011;10406;54.132;17.968;2022-10-31T00:14:03;131.73;;;29.80;;
20495;SDS011;10406;54.132;17.968;2022-10-31T00:19:26;65.17;;;23.90;;
20495;SDS011;10406;54.132;17.968;2022-10-31T00:24:49;72.80;;;26.60;;
20495;SDS011;10406;54.132;17.968;2022-10-31T00:30:19;80.97;;;30.13;;
20495;SDS011;10406;54.132;17.968;2022-10-31T00:35:48;76.80;;;30.60;;
20495;SDS011;10406;54.132;17.968;2022-10-31T00:41:16;97.07;;;27.77;;
20495;SDS011;10406;54.132;17.968;2022-10-31T00:46:48;129.00;;;26.03;;
20495;SDS011;10406;54.132;17.968;2022-10-31T00:52:17;82.20;;;29.27;;
20495;SDS011;10406;54.132;17.968;2022-10-31T00:57:45;48.07;;;23.67;;
20495;SDS011;10406;54.132;17.968;2022-10-31T01:03:16;56.37;;;25.33;;
20495;SDS011;10406;54.132;17.968;2022-10-31T01:08:42;81.30;;;27.03;;
20495;SDS011;10406;54.132;17.968;2022-10-31T01:14:08;82.07;;;27.93;;
20495;SDS011;10406;54.132;17.968;2022-10-31T01:19:29;72.93;;;29.77;;
20495;SDS011;10406;54.132;17.968;2022-10-31T01:24:52;54.47;;;25.57;;
20495;SDS011;10406;54.132;17.968;2022-10-31T01:30:15;67.13;;;27.43;;
20495;SDS011;10406;54.132;17.968;2022-10-31T01:35:39;64.67;;;25.93;;
20495;SDS011;10406;54.132;17.968;2022-10-31T01:41:01;66.47;;;24.23;;
20495;SDS011;10406;54.132;17.968;2022-10-31T01:46:30;49.57;;;22.90;;
20495;SDS011;10406;54.132;17.968;2022-10-31T01:52:00;57.70;;;25.87;;
20495;SDS011;10406;54.132;17.968;2022-10-31T01:57:30;61.47;;;26.73;;
20495;SDS011;10406;54.132;17.968;2022-10-31T02:02:54;68.23;;;26.93;;
20495;SDS011;10406;54.132;17.968;2022-10-31T02:08:26;59.03;;;23.70;;
20495;SDS011;10406;54.132;17.968;2022-10-31T02:14:02;72.57;;;26.17;;
20495;SDS011;10406;54.132;17.968;2022-10-31T02:19:27;53.13;;;25.90;;
20495;SDS011;10406;54.132;17.968;2022-10-31T02:25:15;53.23;;;24.33;;
20495;SDS011;10406;54.132;17.968;2022-10-31T02:31:12;52.43;;;24.57;;
20495;SDS011;10406;54.132;17.968;2022-10-31T02:36:47;84.30;;;25.57;;
20495;SDS011;10406;54.132;17.968;2022-10-31T02:42:24;89.33;;;24.37;;
20495;SDS011;10406;54.132;17.968;2022-10-31T02:47:59;45.47;;;22.63;;
20495;SDS011;10406;54.132;17.968;2022-10-31T02:53:32;47.83;;;22.77;;
20495;SDS011;10406;54.132;17.968;2022-10-31T02:58:56;74.10;;;30.93;;
20495;SDS011;10406;54.132;17.968;2022-10-31T03:04:39;72.83;;;27.50;;
20495;SDS011;10406;54.132;17.968;2022-10-31T03:10:19;50.77;;;22.53;;
20495;SDS011;10406;54.132;17.968;2022-10-31T03:15:49;75.30;;;24.33;;
20495;SDS011;10406;54.132;17.968;2022-10-31T03:21:25;73.00;;;23.47;;
20495;SDS011;10406;54.132;17.968;2022-10-31T03:26:57;51.10;;;22.33;;
20495;SDS011;10406;54.132;17.968;2022-10-31T03:32:38;96.20;;;24.87;;
20495;SDS011;10406;54.132;17.968;2022-10-31T03:38:07;48.47;;;22.37;;
20495;SDS011;10406;54.132;17.968;2022-10-31T03:43:31;46.40;;;22.13;;
20495;SDS011;10406;54.132;17.968;2022-10-31T03:48:59;106.37;;;25.63;;
20495;SDS011;10406;54.132;17.968;2022-10-31T03:54:27;49.60;;;23.73;;
20495;SDS011;10406;54.132;17.968;2022-10-31T03:59:58;61.07;;;22.50;;
20495;SDS011;10406;54.132;17.968;2022-10-31T04:05:25;44.37;;;21.60;;
20495;SDS011;10406;54.132;17.968;2022-10-31T04:10:54;48.37;;;23.40;;
20495;SDS011;10406;54.132;17.968;2022-10-31T04:16:17;52.73;;;25.13;;
20495;SDS011;10406;54.132;17.968;2022-10-31T04:22:05;52.30;;;24.63;;
20495;SDS011;10406;54.132;17.968;2022-10-31T04:27:28;64.17;;;23.63;;
20495;SDS011;10406;54.132;17.968;2022-10-31T04:32:51;45.20;;;23.53;;
20495;SDS011;10406;54.132;17.968;2022-10-31T04:38:15;56.27;;;22.47;;
20495;SDS011;10406;54.132;17.968;2022-10-31T04:43:46;73.60;;;25.07;;
20495;SDS011;10406;54.132;17.968;2022-10-31T04:49:18;45.67;;;23.07;;
20495;SDS011;10406;54.132;17.968;2022-10-31T04:54:48;48.70;;;23.47;;
20495;SDS011;10406;54.132;17.968;2022-10-31T05:00:19;41.13;;;21.93;;
20495;SDS011;10406;54.132;17.968;2022-10-31T05:05:45;58.30;;;23.00;;
20495;SDS011;10406;54.132;17.968;2022-10-31T05:11:07;39.50;;;21.80;;
20495;SDS011;10406;54.132;17.968;2022-10-31T05:16:33;46.27;;;22.90;;
20495;SDS011;10406;54.132;17.968;2022-10-31T05:22:06;63.20;;;22.70;;
20495;SDS011;10406;54.132;17.968;2022-10-31T05:27:32;43.70;;;23.57;;
20495;SDS011;10406;54.132;17.968;2022-10-31T05:33:13;55.30;;;25.63;;
20495;SDS011;10406;54.132;17.968;2022-10-31T05:38:44;80.27;;;28.13;;
20495;SDS011;10406;54.132;17.968;2022-10-31T05:50:11;50.87;;;27.47;;
20495;SDS011;10406;54.132;17.968;2022-10-31T05:56:26;77.93;;;26.10;;
20495;SDS011;10406;54.132;17.968;2022-10-31T06:01:59;54.63;;;29.03;;
20495;SDS011;10406;54.132;17.968;2022-10-31T06:07:58;62.97;;;27.43;;
20495;SDS011;10406;54.132;17.968;2022-10-31T06:19:25;55.27;;;27.07;;
20495;SDS011;10406;54.132;17.968;2022-10-31T06:24:59;54.87;;;28.53;;
20495;SDS011;10406;54.132;17.968;2022-10-31T06:30:22;57.47;;;29.30;;
20495;SDS011;10406;54.132;17.968;2022-10-31T06:35:56;48.93;;;24.87;;
20495;SDS011;10406;54.132;17.968;2022-10-31T06:41:23;49.57;;;23.97;;
20495;SDS011;10406;54.132;17.968;2022-10-31T06:46:49;50.23;;;27.57;;
20495;SDS011;10406;54.132;17.968;2022-10-31T06:52:21;42.00;;;22.47;;
20495;SDS011;10406;54.132;17.968;2022-10-31T06:57:50;51.30;;;24.90;;
20495;SDS011;10406;54.132;17.968;2022-10-31T07:03:17;49.50;;;23.20;;
20495;SDS011;10406;54.132;17.968;2022-10-31T07:08:40;64.87;;;30.57;;
20495;SDS011;10406;54.132;17.968;2022-10-31T07:14:08;53.63;;;24.40;;
20495;SDS011;10406;54.132;17.968;2022-10-31T07:19:39;46.90;;;24.57;;
20495;SDS011;10406;54.132;17.968;2022-10-31T07:25:08;52.40;;;21.50;;
20495;SDS011;10406;54.132;17.968;2022-10-31T07:30:35;64.10;;;22.90;;
20495;SDS011;10406;54.132;17.968;2022-10-31T07:36:04;47.40;;;22.83;;
20495;SDS011;10406;54.132;17.968;2022-10-31T07:41:31;51.17;;;23.77;;
20495;SDS011;10406;54.132;17.968;2022-10-31T07:46:55;49.07;;;21.30;;
20495;SDS011;10406;54.132;17.968;2022-10-31T07:52:22;47.87;;;22.10;;
20495;SDS011;10406;54.132;17.968;2022-10-31T07:57:55;56.60;;;24.57;;
20495;SDS011;10406;54.132;17.968;2022-10-31T08:03:33;61.37;;;26.30;;
20495;SDS011;10406;54.132;17.968;2022-10-31T08:08:54;47.77;;;23.70;;
20495;SDS011;10406;54.132;17.968;2022-10-31T08:14:21;59.70;;;25.43;;
20495;SDS011;10406;54.132;17.968;2022-10-31T08:19:47;45.37;;;20.87;;
20495;SDS011;10406;54.132;17.968;2022-10-31T08:25:13;51.00;;;22.80;;
20495;SDS011;10406;54.132;17.968;2022-10-31T08:30:42;46.50;;;22.77;;
20495;SDS011;10406;54.132;17.968;2022-10-31T08:36:07;45.80;;;24.50;;
20495;SDS011;10406;54.132;17.968;2022-10-31T08:41:37;42.60;;;24.97;;
20495;SDS011;10406;54.132;17.968;2022-10-31T08:47:07;48.60;;;24.80;;
20495;SDS011;10406;54.132;17.968;2022-10-31T08:52:34;53.63;;;25.67;;
20495;SDS011;10406;54.132;17.968;2022-10-31T08:57:59;58.70;;;29.37;;
20495;SDS011;10406;54.132;17.968;2022-10-31T09:03:30;51.33;;;25.40;;
20495;SDS011;10406;54.132;17.968;2022-10-31T09:08:59;44.67;;;23.57;;
20495;SDS011;10406;54.132;17.968;2022-10-31T09:14:30;65.97;;;29.27;;
20495;SDS011;10406;54.132;17.968;2022-10-31T09:19:53;63.50;;;31.23;;
20495;SDS011;10406;54.132;17.968;2022-10-31T09:25:16;51.83;;;25.43;;
20495;SDS011;10406;54.132;17.968;2022-10-31T09:30:41;40.13;;;19.67;;
20495;SDS011;10406;54.132;17.968;2022-10-31T09:36:18;40.07;;;21.17;;
20495;SDS011;10406;54.132;17.968;2022-10-31T09:42:22;41.73;;;18.20;;
20495;SDS011;10406;54.132;17.968;2022-10-31T09:48:11;45.63;;;22.50;;
20495;SDS011;10406;54.132;17.968;2022-10-31T09:53:49;43.83;;;21.83;;
20495;SDS011;10406;54.132;17.968;2022-10-31T09:59:28;38.87;;;19.63;;
20495;SDS011;10406;54.132;17.968;2022-10-31T10:05:05;44.80;;;22.77;;
20495;SDS011;10406;54.132;17.968;2022-10-31T10:10:39;56.37;;;25.53;;
20495;SDS011;10406;54.132;17.968;2022-10-31T10:22:02;32.57;;;17.13;;
20495;SDS011;10406;54.132;17.968;2022-10-31T10:27:39;35.10;;;17.80;;
20495;SDS011;10406;54.132;17.968;2022-10-31T10:33:14;32.37;;;16.83;;
20495;SDS011;10406;54.132;17.968;2022-10-31T10:38:45;33.97;;;17.47;;
20495;SDS011;10406;54.132;17.968;2022-10-31T10:44:19;30.50;;;16.00;;
20495;SDS011;10406;54.132;17.968;2022-10-31T10:49:45;28.87;;;15.47;;
20495;SDS011;10406;54.132;17.968;2022-10-31T10:55:13;34.47;;;17.40;;
20495;SDS011;10406;54.132;17.968;2022-10-31T11:00:49;28.80;;;14.83;;
20495;SDS011;10406;54.132;17.968;2022-10-31T11:06:18;31.00;;;16.50;;
20495;SDS011;10406;54.132;17.968;2022-10-31T11:11:45;32.63;;;17.07;;
20495;SDS011;10406;54.132;17.968;2022-10-31T11:17:16;35.13;;;17.50;;
20495;SDS011;10406;54.132;17.968;2022-10-31T11:23:02;36.67;;;18.80;;
20495;SDS011;10406;54.132;17.968;2022-10-31T11:28:29;34.13;;;17.10;;
20495;SDS011;10406;54.132;17.968;2022-10-31T11:33:56;34.90;;;17.13;;
20495;SDS011;10406;54.132;17.968;2022-10-31T11:39:25;53.37;;;25.10;;
20495;SDS011;10406;54.132;17.968;2022-10-31T11:44:47;25.70;;;12.27;;
20495;SDS011;10406;54.132;17.968;2022-10-31T11:50:11;52.87;;;27.00;;
20495;SDS011;10406;54.132;17.968;2022-10-31T11:55:44;35.10;;;16.63;;
20495;SDS011;10406;54.132;17.968;2022-10-31T12:01:29;90.13;;;30.40;;
20495;SDS011;10406;54.132;17.968;2022-10-31T12:06:53;42.17;;;20.73;;
20495;SDS011;10406;54.132;17.968;2022-10-31T12:18:27;29.57;;;13.47;;
20495;SDS011;10406;54.132;17.968;2022-10-31T12:24:18;26.50;;;11.30;;
20495;SDS011;10406;54.132;17.968;2022-10-31T12:30:02;36.57;;;15.27;;
20495;SDS011;10406;54.132;17.968;2022-10-31T12:35:50;29.37;;;12.60;;
20495;SDS011;10406;54.132;17.968;2022-10-31T12:41:34;35.73;;;14.73;;
20495;SDS011;10406;54.132;17.968;2022-10-31T12:53:21;32.00;;;13.07;;
20495;SDS011;10406;54.132;17.968;2022-10-31T12:59:10;28.87;;;13.40;;
20495;SDS011;10406;54.132;17.968;2022-10-31T13:04:51;84.90;;;32.23;;
20495;SDS011;10406;54.132;17.968;2022-10-31T13:10:26;43.83;;;17.03;;
20495;SDS011;10406;54.132;17.968;2022-10-31T13:16:04;41.30;;;14.07;;
20495;SDS011;10406;54.132;17.968;2022-10-31T13:21:45;33.30;;;14.63;;
20495;SDS011;10406;54.132;17.968;2022-10-31T13:27:21;47.70;;;20.30;;
20495;SDS011;10406;54.132;17.968;2022-10-31T13:32:48;50.73;;;22.50;;
20495;SDS011;10406;54.132;17.968;2022-10-31T13:38:16;124.80;;;37.63;;
20495;SDS011;10406;54.132;17.968;2022-10-31T13:43:43;90.53;;;31.30;;
20495;SDS011;10406;54.132;17.968;2022-10-31T13:49:26;53.20;;;22.67;;
20495;SDS011;10406;54.132;17.968;2022-10-31T13:55:39;63.13;;;28.87;;
20495;SDS011;10406;54.132;17.968;2022-10-31T14:01:12;43.20;;;17.50;;
20495;SDS011;10406;54.132;17.968;2022-10-31T14:06:44;59.57;;;29.50;;
20495;SDS011;10406;54.132;17.968;2022-10-31T14:12:29;69.10;;;33.73;;
20495;SDS011;10406;54.132;17.968;2022-10-31T14:17:56;59.33;;;27.60;;
20495;SDS011;10406;54.132;17.968;2022-10-31T14:23:37;51.83;;;25.00;;
20495;SDS011;10406;54.132;17.968;2022-10-31T14:34:56;65.13;;;29.10;;
20495;SDS011;10406;54.132;17.968;2022-10-31T14:40:29;50.80;;;25.70;;
20495;SDS011;10406;54.132;17.968;2022-10-31T14:46:00;95.43;;;36.07;;
20495;SDS011;10406;54.132;17.968;2022-10-31T14:51:36;113.60;;;42.80;;
20495;SDS011;10406;54.132;17.968;2022-10-31T14:57:06;39.30;;;19.70;;
20495;SDS011;10406;54.132;17.968;2022-10-31T15:09:59;88.13;;;39.77;;
20495;SDS011;10406;54.132;17.968;2022-10-31T15:21:12;48.40;;;24.10;;
20495;SDS011;10406;54.132;17.968;2022-10-31T15:27:03;44.80;;;24.33;;
20495;SDS011;10406;54.132;17.968;2022-10-31T15:39:34;90.87;;;45.67;;
20495;SDS011;10406;54.132;17.968;2022-10-31T15:44:59;37.93;;;18.40;;
20495;SDS011;10406;54.132;17.968;2022-10-31T15:50:32;63.70;;;26.73;;
20495;SDS011;10406;54.132;17.968;2022-10-31T15:56:00;82.90;;;34.53;;
20495;SDS011;10406;54.132;17.968;2022-10-31T16:01:38;35.47;;;18.13;;
20495;SDS011;10406;54.132;17.968;2022-10-31T16:13:24;27.93;;;12.10;;
20495;SDS011;10406;54.132;17.968;2022-10-31T16:19:00;80.23;;;34.40;;
20495;SDS011;10406;54.132;17.968;2022-10-31T16:24:24;99.67;;;40.00;;
20495;SDS011;10406;54.132;17.968;2022-10-31T16:29:53;86.07;;;36.37;;
20495;SDS011;10406;54.132;17.968;2022-10-31T16:35:18;246.83;;;73.53;;
20495;SDS011;10406;54.132;17.968;2022-10-31T16:40:45;181.30;;;70.70;;
20495;SDS011;10406;54.132;17.968;2022-10-31T16:46:08;194.60;;;69.50;;
20495;SDS011;10406;54.132;17.968;2022-10-31T16:51:38;367.40;;;128.80;;
20495;SDS011;10406;54.132;17.968;2022-10-31T17:03:07;247.67;;;82.60;;
20495;SDS011;10406;54.132;17.968;2022-10-31T17:08:34;241.83;;;86.17;;
20495;SDS011;10406;54.132;17.968;2022-10-31T17:14:09;199.07;;;77.03;;
20495;SDS011;10406;54.132;17.968;2022-10-31T17:19:30;316.90;;;110.70;;
20495;SDS011;10406;54.132;17.968;2022-10-31T17:24:54;202.93;;;84.83;;
20495;SDS011;10406;54.132;17.968;2022-10-31T17:30:15;148.10;;;60.13;;
20495;SDS011;10406;54.132;17.968;2022-10-31T17:35:37;184.10;;;83.13;;
20495;SDS011;10406;54.132;17.968;2022-10-31T17:41:00;232.03;;;92.90;;
20495;SDS011;10406;54.132;17.968;2022-10-31T17:46:24;180.43;;;78.93;;
20495;SDS011;10406;54.132;17.968;2022-10-31T17:51:47;215.03;;;81.97;;
20495;SDS011;10406;54.132;17.968;2022-10-31T17:57:10;448.13;;;161.53;;
20495;SDS011;10406;54.132;17.968;2022-10-31T18:08:31;167.30;;;71.77;;
20495;SDS011;10406;54.132;17.968;2022-10-31T18:19:46;68.77;;;37.17;;
20495;SDS011;10406;54.132;17.968;2022-10-31T18:25:10;44.33;;;21.90;;
20495;SDS011;10406;54.132;17.968;2022-10-31T18:30:32;32.20;;;15.10;;
20495;SDS011;10406;54.132;17.968;2022-10-31T18:35:53;26.33;;;11.47;;
20495;SDS011;10406;54.132;17.968;2022-10-31T18:41:15;38.37;;;15.33;;
20495;SDS011;10406;54.132;17.968;2022-10-31T18:46:37;51.57;;;20.93;;
20495;SDS011;10406;54.132;17.968;2022-10-31T18:52:04;176.63;;;81.20;;
20495;SDS011;10406;54.132;17.968;2022-10-31T18:57:33;120.43;;;61.37;;
20495;SDS011;10406;54.132;17.968;2022-10-31T19:02:59;24.43;;;11.47;;
20495;SDS011;10406;54.132;17.968;2022-10-31T19:08:23;25.23;;;9.93;;
20495;SDS011;10406;54.132;17.968;2022-10-31T19:13:47;54.70;;;25.63;;
20495;SDS011;10406;54.132;17.968;2022-10-31T19:19:18;31.47;;;11.67;;
20495;SDS011;10406;54.132;17.968;2022-10-31T19:24:51;44.23;;;23.00;;
20495;SDS011;10406;54.132;17.968;2022-10-31T19:30:37;38.03;;;18.17;;
20495;SDS011;10406;54.132;17.968;2022-10-31T19:36:11;50.47;;;24.27;;
20495;SDS011;10406;54.132;17.968;2022-10-31T19:41:45;38.20;;;18.60;;
20495;SDS011;10406;54.132;17.968;2022-10-31T19:47:13;52.97;;;19.73;;
20495;SDS011;10406;54.132;17.968;2022-10-31T19:53:20;33.40;;;13.73;;
20495;SDS011;10406;54.132;17.968;2022-10-31T19:58:46;32.10;;;12.57;;
20495;SDS011;10406;54.132;17.968;2022-10-31T20:04:25;28.07;;;9.57;;
20495;SDS011;10406;54.132;17.968;2022-10-31T20:10:09;35.40;;;12.50;;
20495;SDS011;10406;54.132;17.968;2022-10-31T20:15:35;22.67;;;9.80;;
20495;SDS011;10406;54.132;17.968;2022-10-31T20:21:11;20.53;;;9.67;;
20495;SDS011;10406;54.132;17.968;2022-10-31T20:26:42;23.37;;;9.90;;
20495;SDS011;10406;54.132;17.968;2022-10-31T20:32:19;24.40;;;10.47;;
20495;SDS011;10406;54.132;17.968;2022-10-31T20:37:46;29.13;;;11.43;;
20495;SDS011;10406;54.132;17.968;2022-10-31T20:43:24;26.20;;;10.37;;
20495;SDS011;10406;54.132;17.968;2022-10-31T20:49:02;42.03;;;17.33;;
20495;SDS011;10406;54.132;17.968;2022-10-31T20:54:34;24.47;;;10.93;;
20495;SDS011;10406;54.132;17.968;2022-10-31T21:00:26;20.57;;;10.17;;
20495;SDS011;10406;54.132;17.968;2022-10-31T21:05:51;24.50;;;10.73;;
20495;SDS011;10406;54.132;17.968;2022-10-31T21:11:17;29.73;;;11.93;;
20495;SDS011;10406;54.132;17.968;2022-10-31T21:16:40;32.60;;;11.67;;
20495;SDS011;10406;54.132;17.968;2022-10-31T21:22:04;23.20;;;11.17;;
20495;SDS011;10406;54.132;17.968;2022-10-31T21:27:25;22.70;;;11.03;;
20495;SDS011;10406;54.132;17.968;2022-10-31T21:32:47;20.50;;;9.43;;
20495;SDS011;10406;54.132;17.968;2022-10-31T21:38:08;23.57;;;9.87;;
20495;SDS011;10406;54.132;17.968;2022-10-31T21:43:29;20.10;;;8.93;;
20495;SDS011;10406;54.132;17.968;2022-10-31T21:49:00;22.13;;;10.00;;
20495;SDS011;10406;54.132;17.968;2022-10-31T21:54:22;24.83;;;10.30;;
20495;SDS011;10406;54.132;17.968;2022-10-31T21:59:51;17.33;;;9.37;;
20495;SDS011;10406;54.132;17.968;2022-10-31T22:05:14;29.00;;;13.67;;
20495;SDS011;10406;54.132;17.968;2022-10-31T22:10:35;26.73;;;12.33;;
20495;SDS011;10406;54.132;17.968;2022-10-31T22:15:58;24.10;;;11.10;;
20495;SDS011;10406;54.132;17.968;2022-10-31T22:21:22;24.67;;;12.03;;
20495;SDS011;10406;54.132;17.968;2022-10-31T22:26:44;29.30;;;11.03;;
20495;SDS011;10406;54.132;17.968;2022-10-31T22:32:05;22.70;;;10.37;;
20495;SDS011;10406;54.132;17.968;2022-10-31T22:37:27;25.87;;;11.07;;
20495;SDS011;10406;54.132;17.968;2022-10-31T22:42:59;23.50;;;11.03;;
20495;SDS011;10406;54.132;17.968;2022-10-31T22:48:26;32.00;;;14.20;;
20495;SDS011;10406;54.132;17.968;2022-10-31T22:53:52;24.27;;;11.13;;
20495;SDS011;10406;54.132;17.968;2022-10-31T22:59:17;22.53;;;10.33;;
20495;SDS011;10406;54.132;17.968;2022-10-31T23:04:38;23.53;;;9.17;;
20495;SDS011;10406;54.132;17.968;2022-10-31T23:10:01;14.80;;;7.20;;
20495;SDS011;10406;54.132;17.968;2022-10-31T23:15:24;19.23;;;10.00;;
20495;SDS011;10406;54.132;17.968;2022-10-31T23:20:49;23.87;;;10.43;;
20495;SDS011;10406;54.132;17.968;2022-10-31T23:26:15;21.30;;;9.33;;
20495;SDS011;10406;54.132;17.968;2022-10-31T23:31:53;20.67;;;9.60;;
20495;SDS011;10406;54.132;17.968;2022-10-31T23:37:18;20.40;;;9.53;;
20495;SDS011;10406;54.132;17.968;2022-10-31T23:42:44;24.30;;;9.90;;
20495;SDS011;10406;54.132;17.968;2022-10-31T23:48:05;24.03;;;10.60;;
20495;SDS011;10406;54.132;17.968;2022-10-31T23:53:26;31.13;;;11.70;;
20495;SDS011;10406;54.132;17.968;2022-10-31T23:58:51;20.70;;;10.07;;
